Terminal Aerodrome Forecast
Issued by NWS

Current Version | Previous Version | Text Only | Print | Product List | Glossary Off
Versions: 1 2 3 4 5 6 7 8 9 10 11 12 13 14 15 16 17 18 19 20 21 22 23 24 25 26

000
FTUS41 KPBZ 151400 AAA
TAFMGW
TAF AMD
KMGW 151409Z 1514/1612 VRB03KT 2SM BR OVC007
     FM151600 13005KT 5SM HZ BKN015
     FM152200 09004KT P6SM BKN250
     FM161000 13007KT 5SM -SHRA OVC035=

USA.gov is the U.S. government's official web portal to all federal, state and local government web resources and services.